Delta Virtual Airport Information Service

Myrtle Beach International Airport

ICAO: KMYR Country: United States
Latitude: 33.6797 Longitude: -78.9283
Latest Arrival : NKS415 (A) (KORD-KMYR) Latest Departure : UAL2718 (KMYR-KMCO)


WX CaptureLIVE
Data provided by noaa.gov | Fetched at 23:25:44

METAR : KMYR 080456Z AUTO 34003KT 10SM CLR 04/M03 A3043 RMK AO2 SLP304 T00391033 401390006

TAF : KMYR 072327Z 0800/0824 35006KT P6SM SKC


Runway Data for KMYR
Data provided by openaviationdata.com

Runway ID Mag Var Hdg Length Elevation Surface ILS Freq ILS Id ILS Slope
18 -7 175° 9519 ft 25 ft Asphalt 109.5 IMYR 3
36 -7 355° 9519 ft 25 ft Asphalt 111.9 IBSQ 3

Myrtle Beach International Airport, United States
Use only for reference purposes



Not for navigational purposes.